createdAt,value
2022-12-20T00:02:06.843Z,98910.56
2022-12-20T00:04:54.998Z,98914.19
2022-12-20T00:07:37.792Z,98913.38
2022-12-20T00:10:26.618Z,98921.19
2022-12-20T00:13:09.019Z,98919.84
2022-12-20T00:15:57.778Z,98922.97
2022-12-20T00:18:40.055Z,98924.84
2022-12-20T00:21:28.687Z,98916.13
2022-12-20T00:24:23.917Z,98927.94
2022-12-20T00:27:16.695Z,98925.81
2022-12-20T00:29:59.044Z,98931.03
2022-12-20T00:32:47.673Z,98932.44
2022-12-20T00:35:30.062Z,98934.16
2022-12-20T00:38:19.778Z,98941.22
2022-12-20T00:41:38.592Z,98927.78
2022-12-20T00:44:36.600Z,98936.75
2022-12-20T00:47:25.028Z,98945.00
2022-12-20T00:50:06.765Z,98943.59
2022-12-20T00:52:55.697Z,98941.03
2022-12-20T00:55:37.977Z,98949.31
2022-12-20T00:58:26.647Z,98953.84
2022-12-20T01:01:09.994Z,98946.25
2022-12-20T01:03:59.629Z,98963.38
2022-12-20T01:06:42.979Z,98954.91
2022-12-20T01:09:31.613Z,98963.19
2022-12-20T01:12:20.753Z,98971.22
2022-12-20T01:15:02.896Z,98962.56
2022-12-20T01:17:52.650Z,98975.78
2022-12-20T01:20:34.890Z,98970.47
2022-12-20T01:23:23.596Z,98979.09
2022-12-20T01:26:16.566Z,98977.66
2022-12-20T01:29:03.022Z,98990.50
2022-12-20T01:31:51.726Z,98988.06
2022-12-20T01:34:33.941Z,98992.59
2022-12-20T01:37:22.641Z,98991.75
2022-12-20T01:40:11.698Z,99003.09
2022-12-20T01:48:36.640Z,99004.56
2022-12-20T01:51:27.029Z,99005.63
2022-12-20T01:54:46.626Z,99007.69
2022-12-20T01:57:46.047Z,99013.25
2022-12-20T02:00:28.691Z,99016.97
2022-12-20T02:03:20.602Z,99021.50
2022-12-20T02:06:09.702Z,99026.06
2022-12-20T02:08:54.061Z,99026.84
2022-12-20T02:11:52.747Z,99040.44
2022-12-20T02:14:56.472Z,99041.88
2022-12-20T02:18:00.699Z,99041.25
2022-12-20T02:21:14.631Z,99050.38
2022-12-20T02:24:37.584Z,99047.25
2022-12-20T02:27:42.078Z,99050.53
2022-12-20T02:30:30.608Z,99053.50
2022-12-20T02:33:15.184Z,99058.25
2022-12-20T02:36:03.595Z,99059.91
2022-12-20T02:38:59.714Z,99058.66
2022-12-20T02:41:54.594Z,99059.72
2022-12-20T02:45:05.647Z,99068.28
2022-12-20T02:48:12.903Z,99076.75
2022-12-20T02:50:59.735Z,99079.91
2022-12-20T02:53:50.623Z,99071.28
2022-12-20T02:56:47.182Z,99083.47
2022-12-20T02:59:45.569Z,99083.22
2022-12-20T03:02:35.837Z,99079.56
2022-12-20T03:05:31.698Z,99091.91
2022-12-20T03:08:13.883Z,99097.63
2022-12-20T03:11:04.725Z,99094.69
2022-12-20T03:13:46.936Z,99099.91
2022-12-20T03:16:35.672Z,99110.38
2022-12-20T03:19:18.996Z,99106.88
2022-12-20T03:22:07.664Z,99116.28
2022-12-20T03:24:49.785Z,99115.84
2022-12-20T03:27:38.642Z,99121.13
2022-12-20T03:30:27.970Z,99128.69
2022-12-20T03:33:10.637Z,99119.72
2022-12-20T03:35:58.987Z,99129.78
2022-12-20T03:38:41.595Z,99140.91
2022-12-20T03:41:24.574Z,99135.47
2022-12-20T03:44:15.682Z,99137.63
2022-12-20T03:47:10.697Z,99143.72
2022-12-20T03:50:01.085Z,99156.94
2022-12-20T03:52:44.611Z,99162.03
2022-12-20T03:55:32.959Z,99156.91
2022-12-20T03:58:14.576Z,99159.41
2022-12-20T04:00:59.310Z,99175.19
2022-12-20T04:03:54.673Z,99177.97
2022-12-20T04:06:36.770Z,99181.03
2022-12-20T04:09:25.596Z,99188.88
2022-12-20T04:12:13.880Z,99196.22
2022-12-20T04:15:02.575Z,99198.69
2022-12-20T04:17:53.679Z,99195.81
2022-12-20T04:20:36.067Z,99198.78
2022-12-20T04:23:33.603Z,99201.38
2022-12-20T04:26:18.872Z,99197.03
2022-12-20T04:29:07.643Z,99206.72
2022-12-20T04:31:52.081Z,99201.59
2022-12-20T04:34:40.681Z,99206.09
2022-12-20T04:37:22.964Z,99211.84
2022-12-20T04:40:13.644Z,99211.63
2022-12-20T04:43:07.579Z,99202.44
2022-12-20T04:45:58.662Z,99211.34
2022-12-20T04:48:56.935Z,99214.44
2022-12-20T04:51:42.587Z,99217.09
2022-12-20T04:54:28.343Z,99220.94
2022-12-20T04:57:28.625Z,99224.00
2022-12-20T05:00:16.455Z,99220.53
2022-12-20T05:03:14.799Z,99215.28
2022-12-20T05:05:57.804Z,99213.16
2022-12-20T05:08:49.013Z,99220.94
2022-12-20T05:11:37.901Z,99217.72
2022-12-20T05:14:20.714Z,99219.06
2022-12-20T05:17:09.757Z,99220.63
2022-12-20T05:19:51.994Z,99217.44
2022-12-20T05:22:58.580Z,99199.97
2022-12-20T05:26:01.411Z,99196.56
2022-12-20T05:28:52.630Z,99187.38
2022-12-20T05:31:36.105Z,99185.81
2022-12-20T05:34:24.700Z,99180.34
2022-12-20T05:37:07.232Z,99180.38
2022-12-20T05:39:57.533Z,99183.25
2022-12-20T05:42:47.711Z,99197.69
2022-12-20T05:45:37.311Z,99188.50
2022-12-20T05:48:30.624Z,99193.53
2022-12-20T05:51:13.899Z,99179.78
2022-12-20T05:54:22.717Z,99184.56
2022-12-20T05:57:11.076Z,99177.88
2022-12-20T05:59:59.629Z,99172.41
2022-12-20T06:02:52.194Z,99167.22
2022-12-20T06:05:41.587Z,99170.63
2022-12-20T06:08:36.663Z,99152.53
2022-12-20T06:11:29.943Z,99150.97
2022-12-20T06:14:23.576Z,99151.34
2022-12-20T06:17:05.927Z,99140.66
2022-12-20T06:19:54.605Z,99131.97
2022-12-20T06:22:45.771Z,99123.81
2022-12-20T06:25:28.892Z,99121.56
2022-12-20T06:28:17.722Z,99118.44
2022-12-20T06:31:00.470Z,99112.59
2022-12-20T06:34:03.624Z,99099.34
2022-12-20T06:36:55.908Z,99101.25
2022-12-20T06:39:41.606Z,99095.97
2022-12-20T06:42:30.597Z,99097.38
2022-12-20T06:45:13.978Z,99096.06
2022-12-20T06:48:02.710Z,99084.56
2022-12-20T06:50:56.278Z,99088.69
2022-12-20T06:53:38.869Z,99074.22
2022-12-20T06:56:27.645Z,99084.00
2022-12-20T06:59:16.992Z,99072.31
2022-12-20T07:01:58.911Z,99078.28
2022-12-20T07:04:46.946Z,99069.56
2022-12-20T07:07:28.598Z,99061.44
2022-12-20T07:10:17.679Z,99060.59
2022-12-20T07:13:01.046Z,99059.22
2022-12-20T07:15:49.599Z,99054.59
2022-12-20T07:18:31.973Z,99051.25
2022-12-20T07:21:24.632Z,99044.16
2022-12-20T07:24:14.512Z,99045.75
2022-12-20T07:27:03.652Z,99043.09
2022-12-20T07:29:46.067Z,99037.09
2022-12-20T07:32:34.606Z,99031.63
2022-12-20T07:35:19.462Z,99037.09
2022-12-20T07:38:08.672Z,99029.03
2022-12-20T07:40:51.980Z,99019.56
2022-12-20T07:43:40.671Z,99013.56
2022-12-20T07:46:24.044Z,99011.38
2022-12-20T07:49:13.618Z,99011.38
2022-12-20T07:52:10.683Z,99008.09
2022-12-20T07:55:07.658Z,99002.94
2022-12-20T07:57:56.106Z,99004.78
2022-12-20T08:00:47.645Z,98995.56
2022-12-20T08:03:59.751Z,99000.56
2022-12-20T08:06:43.487Z,98990.72
2022-12-20T08:09:33.604Z,98988.00
2022-12-20T08:12:25.972Z,98989.59
2022-12-20T08:15:08.658Z,98977.53
2022-12-20T08:17:58.905Z,98971.63
2022-12-20T08:20:41.628Z,98969.19
2022-12-20T08:23:29.916Z,98965.81
2022-12-20T08:26:11.614Z,98963.66
2022-12-20T08:28:59.956Z,98956.53
2022-12-20T08:31:50.132Z,98953.22
2022-12-20T08:34:38.949Z,98946.16
2022-12-20T08:37:20.720Z,98937.75
2022-12-20T08:40:09.731Z,98937.25
2022-12-20T08:42:51.552Z,98935.03
2022-12-20T08:45:40.110Z,98926.34
2022-12-20T08:48:35.688Z,98926.44
2022-12-20T08:51:17.913Z,98929.88
2022-12-20T08:54:07.605Z,98914.41
2022-12-20T08:56:56.039Z,98916.66
2022-12-20T08:59:37.592Z,98903.00
2022-12-20T09:02:27.188Z,98907.63
2022-12-20T09:05:10.600Z,98911.41
2022-12-20T09:07:58.928Z,98904.38
2022-12-20T09:10:41.634Z,98898.53
2022-12-20T09:13:29.954Z,98899.03
2022-12-20T09:16:14.758Z,98896.72
2022-12-20T09:19:06.737Z,98896.69
2022-12-20T09:21:49.670Z,98903.34
2022-12-20T09:24:37.957Z,98893.03
2022-12-20T09:27:19.522Z,98885.56
2022-12-20T09:30:08.659Z,98880.03
2022-12-20T09:32:50.997Z,98877.06
2022-12-20T09:35:41.582Z,98877.63
2022-12-20T09:38:30.539Z,98873.72
2022-12-20T09:41:50.642Z,98866.44
2022-12-20T09:44:38.916Z,98857.94
2022-12-20T09:47:32.706Z,98871.72
2022-12-20T09:50:22.642Z,98862.59
2022-12-20T09:53:33.937Z,98860.13
2022-12-20T09:56:31.651Z,98863.19
2022-12-20T09:59:24.574Z,98856.84
2022-12-20T10:02:53.944Z,98855.19
2022-12-20T10:05:46.788Z,98851.13
2022-12-20T10:09:06.996Z,98846.97
2022-12-20T10:12:29.614Z,98849.22
2022-12-20T10:15:29.022Z,98840.47
2022-12-20T10:18:23.690Z,98832.09
2022-12-20T10:21:34.082Z,98831.94
2022-12-20T10:24:27.635Z,98832.34
2022-12-20T10:27:26.973Z,98833.78
2022-12-20T10:30:23.709Z,98820.50
2022-12-20T10:33:06.902Z,98818.28
2022-12-20T10:35:56.538Z,98819.41
2022-12-20T10:39:06.602Z,98817.75
2022-12-20T10:41:59.640Z,98821.28
2022-12-20T10:44:41.888Z,98812.59
2022-12-20T10:47:54.579Z,98819.16
2022-12-20T10:50:43.732Z,98813.44
2022-12-20T10:53:32.664Z,98809.03
2022-12-20T10:56:37.893Z,98808.03
2022-12-20T10:59:26.664Z,98800.97
2022-12-20T11:02:40.970Z,98803.44
2022-12-20T11:05:37.650Z,98797.75
2022-12-20T11:08:39.255Z,98802.66
2022-12-20T11:11:31.625Z,98796.66
2022-12-20T11:14:23.863Z,98789.06
2022-12-20T11:17:08.607Z,98782.53
2022-12-20T11:19:59.978Z,98786.91
2022-12-20T11:22:54.618Z,98784.47
2022-12-20T11:26:16.631Z,98785.56
2022-12-20T11:29:41.935Z,98779.56
2022-12-20T11:32:35.659Z,98784.44
2022-12-20T11:35:34.913Z,98784.19
2022-12-20T11:38:38.624Z,98787.50
2022-12-20T11:41:53.338Z,98789.34
2022-12-20T11:44:37.742Z,98784.97
2022-12-20T11:47:50.425Z,98786.84
2022-12-20T11:50:54.522Z,98788.44
2022-12-20T11:53:46.124Z,98785.69
2022-12-20T11:56:45.256Z,98791.66
2022-12-20T11:59:51.236Z,98788.56
2022-12-20T12:02:58.622Z,98784.06
2022-12-20T12:05:51.969Z,98785.31
2022-12-20T12:08:48.451Z,98791.03
2022-12-20T12:12:05.839Z,98795.31
2022-12-20T12:15:26.665Z,98791.38
2022-12-20T12:18:43.284Z,98789.44
2022-12-20T12:21:43.560Z,98790.38
2022-12-20T12:24:42.588Z,98791.72
2022-12-20T12:27:35.579Z,98793.34
2022-12-20T12:30:22.967Z,98794.06
2022-12-20T12:33:24.376Z,98794.38
2022-12-20T12:36:32.621Z,98792.47
2022-12-20T12:39:26.594Z,98797.69
2022-12-20T12:42:43.596Z,98796.75
2022-12-20T12:45:36.384Z,98795.41
2022-12-20T12:48:58.536Z,98795.50
2022-12-20T12:51:51.812Z,98797.31
2022-12-20T12:54:50.029Z,98795.66
2022-12-20T12:58:07.661Z,98805.47
2022-12-20T13:01:03.618Z,98799.72
2022-12-20T13:03:55.343Z,98804.09
2022-12-20T13:06:44.651Z,98802.03
2022-12-20T13:09:33.678Z,98806.63
2022-12-20T13:12:47.701Z,98808.69
2022-12-20T13:15:37.618Z,98811.25
2022-12-20T13:18:20.063Z,98818.50
2022-12-20T13:21:40.601Z,98824.34
2022-12-20T13:24:47.651Z,98830.75
2022-12-20T13:27:49.553Z,98825.91
2022-12-20T13:30:34.496Z,98835.03
2022-12-20T13:33:54.640Z,98830.06
2022-12-20T13:36:46.954Z,98835.47
2022-12-20T13:39:37.028Z,98838.88
2022-12-20T13:42:34.965Z,98843.81
2022-12-20T13:45:23.616Z,98836.78
2022-12-20T13:48:17.648Z,98840.81
2022-12-20T13:51:06.825Z,98842.53
2022-12-20T13:53:57.523Z,98850.59
2022-12-20T13:57:06.964Z,98848.84
2022-12-20T13:59:52.587Z,98849.78
2022-12-20T14:02:48.061Z,98862.25
2022-12-20T14:05:50.647Z,98860.78
2022-12-20T14:08:35.971Z,98860.97
2022-12-20T14:11:43.626Z,98864.16
2022-12-20T14:14:31.960Z,98865.63
2022-12-20T14:17:36.482Z,98869.31
2022-12-20T14:20:26.858Z,98871.25
2022-12-20T14:23:30.610Z,98873.91
2022-12-20T14:26:46.005Z,98873.00
2022-12-20T14:29:36.623Z,98878.31
2022-12-20T14:32:29.218Z,98872.91
2022-12-20T14:35:12.663Z,98871.72
2022-12-20T14:38:02.755Z,98879.25
2022-12-20T14:40:54.213Z,98876.28
2022-12-20T14:43:38.773Z,98878.06
2022-12-20T14:46:36.738Z,98879.06
2022-12-20T14:49:31.449Z,98882.97
2022-12-20T14:52:26.594Z,98885.44
2022-12-20T14:55:27.915Z,98887.44
2022-12-20T14:58:30.626Z,98888.31
2022-12-20T15:01:29.654Z,98890.84
2022-12-20T15:04:38.546Z,98890.16
2022-12-20T15:07:40.032Z,98888.66
2022-12-20T15:10:22.577Z,98896.16
2022-12-20T15:13:04.990Z,98902.44
2022-12-20T15:15:53.611Z,98902.34
2022-12-20T15:18:43.043Z,98904.75
2022-12-20T15:21:36.665Z,98910.00
2022-12-20T15:24:31.547Z,98903.69
2022-12-20T15:27:20.036Z,98909.13
2022-12-20T15:30:08.580Z,98909.13
2022-12-20T15:32:55.619Z,98907.88
2022-12-20T15:35:44.578Z,98906.59
2022-12-20T15:38:54.899Z,98906.25
2022-12-20T15:41:42.606Z,98908.72
2022-12-20T15:44:30.996Z,98906.38
2022-12-20T15:47:21.599Z,98912.31
2022-12-20T15:50:19.093Z,98904.56
2022-12-20T15:53:08.693Z,98899.91
2022-12-20T15:55:51.285Z,98905.22
2022-12-20T15:58:40.656Z,98909.78
2022-12-20T16:01:48.723Z,98908.03
2022-12-20T16:04:37.599Z,98913.09
2022-12-20T16:07:21.008Z,98916.72
2022-12-20T16:10:09.524Z,98920.00
2022-12-20T16:12:59.664Z,98920.03
2022-12-20T16:15:48.949Z,98921.91
2022-12-20T16:18:34.612Z,98919.69
2022-12-20T16:21:34.550Z,98925.56
2022-12-20T16:24:27.593Z,98921.44
2022-12-20T16:27:16.574Z,98915.31
2022-12-20T16:29:58.789Z,98916.75
2022-12-20T16:32:48.543Z,98913.47
2022-12-20T16:35:42.956Z,98920.63
2022-12-20T16:38:31.598Z,98920.63
2022-12-20T16:41:28.490Z,98919.47
2022-12-20T16:44:23.559Z,98911.38
2022-12-20T16:47:05.912Z,98911.72
2022-12-20T16:49:54.544Z,98902.44
2022-12-20T16:52:45.532Z,98923.94
2022-12-20T16:55:32.176Z,98920.19
2022-12-20T16:58:44.905Z,98916.91
2022-12-20T17:01:33.136Z,98917.94
2022-12-20T17:04:26.560Z,98923.25
2022-12-20T17:07:15.618Z,98918.19
2022-12-20T17:09:58.372Z,98928.75
2022-12-20T17:12:47.584Z,98925.59
2022-12-20T17:15:38.006Z,98919.94
2022-12-20T17:18:26.572Z,98929.72
2022-12-20T17:21:11.844Z,98923.22
2022-12-20T17:24:01.603Z,98931.78
2022-12-20T17:26:43.973Z,98930.63
2022-12-20T17:29:32.647Z,98931.91
2022-12-20T17:32:27.891Z,98928.38
2022-12-20T17:35:38.606Z,98931.78
2022-12-20T17:38:20.929Z,98930.84
2022-12-20T17:41:09.497Z,98936.25
2022-12-20T17:43:51.953Z,98934.22
2022-12-20T17:46:41.567Z,98931.53
2022-12-20T17:49:37.583Z,98935.88
2022-12-20T17:52:28.436Z,98934.22
2022-12-20T17:55:10.856Z,98940.34
2022-12-20T17:58:00.707Z,98937.78
2022-12-20T18:00:42.929Z,98942.81
2022-12-20T18:04:02.303Z,98937.06
2022-12-20T18:06:34.908Z,98939.91
2022-12-20T18:09:26.533Z,98937.88
2022-12-20T18:12:09.208Z,98945.97
2022-12-20T18:14:58.427Z,98941.06
2022-12-20T18:17:40.963Z,98940.56
2022-12-20T18:20:29.682Z,98932.47
2022-12-20T18:23:11.996Z,98939.97
2022-12-20T18:26:00.612Z,98941.13
2022-12-20T18:28:44.009Z,98939.84
2022-12-20T18:31:35.669Z,98937.41
2022-12-20T18:34:17.895Z,98938.91
2022-12-20T18:37:06.572Z,98945.44
2022-12-20T18:39:48.952Z,98936.56
2022-12-20T18:42:37.515Z,98938.88
2022-12-20T18:45:19.854Z,98943.59
2022-12-20T18:48:08.669Z,98934.84
2022-12-20T18:50:56.972Z,98940.72
2022-12-20T18:53:41.566Z,98938.69
2022-12-20T18:56:48.564Z,98943.97
2022-12-20T18:59:30.822Z,98941.69
2022-12-20T19:02:19.627Z,98945.84
2022-12-20T19:05:08.561Z,98938.97
2022-12-20T19:07:51.063Z,98940.31
2022-12-20T19:10:40.952Z,98939.16
2022-12-20T19:13:22.984Z,98948.69
2022-12-20T19:16:16.674Z,98945.38
2022-12-20T19:18:59.773Z,98940.81
2022-12-20T19:21:49.484Z,98932.59
2022-12-20T19:24:38.541Z,98938.00
2022-12-20T19:27:27.508Z,98934.59
2022-12-20T19:30:09.953Z,98930.00
2022-12-20T19:32:58.505Z,98931.06
2022-12-20T19:35:55.359Z,98933.28
2022-12-20T19:38:44.533Z,98933.41
2022-12-20T19:41:27.875Z,98927.28
2022-12-20T19:44:17.541Z,98928.03
2022-12-20T19:47:06.748Z,98930.00
2022-12-20T19:50:02.363Z,98929.41
2022-12-20T19:52:51.502Z,98931.53
2022-12-20T19:55:34.050Z,98936.53
2022-12-20T19:58:22.439Z,98935.41
2022-12-20T20:01:05.864Z,98934.06
2022-12-20T20:03:55.431Z,98935.50
2022-12-20T20:06:37.945Z,98939.16
2022-12-20T20:09:26.594Z,98942.41
2022-12-20T20:12:09.871Z,98938.19
2022-12-20T20:15:00.459Z,98943.31
2022-12-20T20:17:42.903Z,98943.88
2022-12-20T20:20:31.578Z,98943.97
2022-12-20T20:23:13.826Z,98951.16
2022-12-20T20:26:07.550Z,98945.00
2022-12-20T20:28:49.835Z,98947.00
2022-12-20T20:31:39.593Z,98947.22
2022-12-20T20:34:21.999Z,98947.72
2022-12-20T20:37:10.531Z,98951.09
2022-12-20T20:39:52.871Z,98953.41
2022-12-20T20:42:41.534Z,98948.59
2022-12-20T20:45:23.775Z,98946.09
2022-12-20T20:48:12.449Z,98946.47
2022-12-20T20:51:00.927Z,98957.53
2022-12-20T20:53:43.411Z,98958.34
2022-12-20T20:56:32.524Z,98949.38
2022-12-20T20:59:17.904Z,98949.13
2022-12-20T21:02:06.916Z,98949.22
2022-12-20T21:05:07.444Z,98954.00
2022-12-20T21:07:57.854Z,98960.97
2022-12-20T21:10:40.586Z,98961.03
2022-12-20T21:13:28.872Z,98954.28
2022-12-20T21:16:15.417Z,98955.03
2022-12-20T21:19:06.839Z,98962.25
2022-12-20T21:21:48.569Z,98957.59
2022-12-20T21:24:30.820Z,98968.00
2022-12-20T21:27:19.548Z,98967.63
2022-12-20T21:30:08.553Z,98969.25
2022-12-20T21:32:50.795Z,98971.66
2022-12-20T21:35:39.464Z,98968.97
2022-12-20T21:38:28.473Z,98967.75
2022-12-20T21:41:20.372Z,98975.25
2022-12-20T21:44:11.522Z,98969.84
2022-12-20T21:46:59.874Z,98970.44
2022-12-20T21:49:55.404Z,98981.28
2022-12-20T21:52:45.586Z,98977.88
2022-12-20T21:55:27.738Z,98981.25
2022-12-20T21:58:16.374Z,98976.97
2022-12-20T22:01:00.794Z,98978.59
2022-12-20T22:03:49.529Z,98975.00
2022-12-20T22:06:32.558Z,98977.09
2022-12-20T22:09:21.469Z,98983.06
2022-12-20T22:12:10.688Z,98987.84
2022-12-20T22:14:59.933Z,98989.19
2022-12-20T22:17:42.516Z,98991.28
2022-12-20T22:20:31.552Z,99000.81
2022-12-20T22:23:13.815Z,98995.25
2022-12-20T22:26:02.474Z,98995.22
2022-12-20T22:28:50.414Z,98990.28
2022-12-20T22:31:39.566Z,98991.72
2022-12-20T22:34:21.778Z,98991.34
2022-12-20T22:37:10.461Z,98989.59
2022-12-20T22:39:59.411Z,98986.75
2022-12-20T22:42:42.347Z,98987.34
2022-12-20T22:45:31.559Z,98986.50
2022-12-20T22:48:19.777Z,98988.97
2022-12-20T22:51:10.523Z,98998.59
2022-12-20T22:53:59.498Z,98993.72
2022-12-20T22:56:47.755Z,98996.91
2022-12-20T22:59:30.495Z,98990.16
2022-12-20T23:02:18.874Z,98996.75
2022-12-20T23:05:01.440Z,98996.00
2022-12-20T23:07:50.404Z,98995.25
2022-12-20T23:10:57.367Z,98995.34
2022-12-20T23:14:09.539Z,98998.75
2022-12-20T23:16:51.989Z,98995.34
2022-12-20T23:19:59.895Z,99003.53
2022-12-20T23:22:41.861Z,99008.50
2022-12-20T23:25:30.570Z,99011.13
2022-12-20T23:28:12.868Z,99008.03
2022-12-20T23:31:01.512Z,99008.56
2022-12-20T23:33:44.788Z,99010.31
2022-12-20T23:36:33.535Z,99016.25
2022-12-20T23:39:16.831Z,99021.19
2022-12-20T23:42:05.592Z,99019.09
2022-12-20T23:44:47.788Z,99029.94
2022-12-20T23:47:36.526Z,99024.22
2022-12-20T23:50:24.791Z,99034.28
2022-12-20T23:53:06.468Z,99036.53
2022-12-20T23:55:58.972Z,99036.03
2022-12-20T23:58:47.505Z,99038.19
